Flight Track Log - Related Links

Times and Time Zones

All times are in EDT time to prevent confusion due to time zone crossing. See the SWA1044 flight status page for this flight to view local times or setup timezone preferences in your user account.

Time Position Orientation Groundspeed Altitude Reporting Facility
EDT Latitude Longitude Course Direction KTS MPH feet Rate Location/Type
Wed 08:16:45 AM 44.8672 -93.1906 129° Southeast 168 193 3,100  Level FAA TRACON SMA TRACON (SMA)
Wed 08:17:04 AM 44.8572 -93.1733 129° Southeast 178 205 4,200 3,231 Climbing FAA TRACON SMA TRACON (SMA)
Wed 08:17:24 AM 44.8467 -93.1536 127° Southeast 197 227 5,200 2,927 Climbing FAA TRACON SMA TRACON (SMA)
Wed 08:17:45 AM 44.8322 -93.1244 125° Southeast 229 264 6,200 3,300 Climbing FAA TRACON SMA TRACON (SMA)
Wed 08:18:04 AM 44.8128 -93.1097 152° Southeast 259 298 7,400 3,385 Climbing FAA TRACON SMA TRACON (SMA)
Wed 08:18:24 AM 44.7894 -93.1103 181° South 278 320 8,400 3,659 Climbing FAA TRACON SMA TRACON (SMA)
Wed 08:18:45 AM 44.7619 -93.1347 212° Southwest 306 352 9,900 4,244 Climbing FAA TRACON SMA TRACON (SMA)
Wed 08:19:05 AM 44.7433 -93.1614 226° Southwest 313 360 11,300 3,846 Climbing FAA TRACON SMA TRACON (SMA)
Wed 08:19:24 AM 44.7244 -93.1897 227° Southwest 320 368 12,400 4,308 Climbing FAA TRACON SMA TRACON (SMA)
Wed 08:19:44 AM 44.6992 -93.2244 224° Southwest 330 380 14,100 3,805 Climbing FAA TRACON SMA TRACON (SMA)
Wed 08:20:05 AM 44.6794 -93.2531 226° Southwest 331 381 15,000 2,927 Climbing FAA TRACON SMA TRACON (SMA)
Wed 08:20:25 AM 44.6581 -93.2828 225° Southwest 345 397 16,100 3,900 Climbing FAA TRACON SMA TRACON (SMA)
Wed 08:20:45 AM 44.6317 -93.3197 225° Southwest 350 403 17,600 4,050 Climbing FAA TRACON SMA TRACON (SMA)
Wed 08:21:05 AM 44.6114 -93.3508 228° Southwest 350 403 18,800 3,659 Climbing FAA TRACON SMA TRACON (SMA)
Wed 08:21:26 AM 44.5908 -93.3803 226° Southwest 348 400 20,100 3,750 Climbing FAA TRACON SMA TRACON (SMA)
Wed 08:21:45 AM 44.5706 -93.4094 226° Southwest 343 395 21,300 3,846 Climbing FAA TRACON SMA TRACON (SMA)
Wed 08:22:05 AM 44.5458 -93.4458 226° Southwest 337 388 22,600 2,700 Climbing FAA TRACON SMA TRACON (SMA)
Wed 08:22:25 AM 44.5258 -93.4744 226° Southwest 333 383 23,100 2,250 Climbing FAA TRACON SMA TRACON (SMA)
Wed 08:22:45 AM 44.5061 -93.5031 226° Southwest 331 381 24,100 3,846 Climbing FAA TRACON SMA TRACON (SMA)
Wed 08:23:04 AM 44.4819 -93.5378 226° Southwest 326 375 25,600 3,714 Climbing FAA TRACON SMA TRACON (SMA)
Wed 08:23:27 AM 44.4575 -93.5719 225° Southwest 321 369 26,700 2,864 Climbing FAA TRACON SMA TRACON (SMA)
Wed 08:23:48 AM 44.4383 -93.5986 225° Southwest 320 368 27,700 2,684 Climbing FAA TRACON SMA TRACON (SMA)
Wed 08:24:05 AM 44.4181 -93.6247 223° Southwest 320 368 28,400 2,167 Climbing FAA TRACON SMA TRACON (SMA)
Wed 08:24:24 AM 44.3950 -93.6467 214° Southwest 323 372 29,000 1,846 Climbing FAA TRACON SMA TRACON (SMA)
Wed 08:24:44 AM 44.3714 -93.6681 213° Southwest 329 379 29,600 2,100 Climbing FAA TRACON SMA TRACON (SMA)
Wed 08:25:04 AM 44.3397 -93.6931 209° Southwest 337 388 30,400 1,800 Climbing FAA TRACON SMA TRACON (SMA)
Wed 08:25:24 AM 44.3136 -93.7117 207° Southwest 343 395 30,800 1,171 Climbing FAA TRACON SMA TRACON (SMA)
Wed 08:25:45 AM 44.2767 -93.7258 195° South 354 407 31,200 1,024 Climbing FAA TRACON SMA TRACON (SMA)
Wed 08:26:05 AM 44.2458 -93.7361 193° South 365 420 31,500 1,385 Climbing FAA TRACON SMA TRACON (SMA)
Wed 08:26:24 AM 44.2147 -93.7489 196° South 375 432 32,100 2,000 Climbing FAA TRACON SMA TRACON (SMA)
Wed 08:26:44 AM 44.1833 -93.7592 193° South 378 435 32,800 2,400 Climbing FAA TRACON SMA TRACON (SMA)
Wed 08:27:04 AM 44.1447 -93.7739 195° South 376 433 33,700 2,700 Climbing FAA TRACON SMA TRACON (SMA)
Wed 08:27:24 AM 44.1142 -93.7856 195° South 372 428 34,600 2,780 Climbing FAA TRACON SMA TRACON (SMA)
Wed 08:27:45 AM 44.0761 -93.7989 194° South 367 422 35,600 2,700 Climbing FAA TRACON SMA TRACON (SMA)
Wed 08:28:04 AM 44.0461 -93.8086 193° South 360 414 36,400 2,308 Climbing FAA TRACON SMA TRACON (SMA)
Wed 08:28:24 AM 44.0172 -93.8192 195° South 354 407 37,100 2,049 Climbing FAA TRACON SMA TRACON (SMA)
Wed 08:28:45 AM 43.9883 -93.8289 194° South 351 404 37,800 1,607 Climbing FAA TRACON SMA TRACON (SMA)
Wed 08:29:20 AM 43.9483 -93.8392 190° South 351 404 38,600 1,125 Climbing Minneapolis Center
Wed 08:30:21 AM 43.8564 -93.8711 194° South 344 396 39,600 689 Climbing Minneapolis Center
Wed 08:31:22 AM 43.7400 -93.9114 194° South 356 410 40,000 197 Climbing Minneapolis Center
Wed 08:32:23 AM 43.6411 -93.9450 194° South 364 419 40,000  Level Minneapolis Center
Wed 08:33:24 AM 43.5419 -93.9792 194° South 368 423 40,000  Level Minneapolis Center
Wed 08:34:25 AM 43.4500 -94.0100 194° South 370 426 40,000  Level Minneapolis Center
Wed 08:35:27 AM 43.3503 -94.0447 194° South 371 427 40,000  Level Minneapolis Center
Wed 08:36:28 AM 43.2511 -94.0794 194° South 372 428 40,000  Level Minneapolis Center
Wed 08:37:29 AM 43.1311 -94.1206 194° South 373 429 40,000  Level Minneapolis Center
Wed 08:38:30 AM 43.0331 -94.1531 194° South 368 423 40,000  Level Minneapolis Center
Wed 08:39:31 AM 42.9344 -94.1867 194° South 367 422 40,000  Level Minneapolis Center
Wed 08:40:33 AM 42.8364 -94.2208 194° South 367 422 40,000  Level Minneapolis Center
Wed 08:41:34 AM 42.7375 -94.2536 194° South 368 423 40,000  Level Minneapolis Center
Wed 08:42:35 AM 42.6403 -94.2864 194° South 364 419 40,000  Level Minneapolis Center
Wed 08:43:36 AM 42.5458 -94.3233 196° South 360 414 40,000  Level Minneapolis Center
Wed 08:44:37 AM 42.4325 -94.3697 197° South 356 410 40,000  Level Minneapolis Center
Wed 08:45:39 AM 42.3397 -94.4122 199° South 354 407 40,000  Level Minneapolis Center
Wed 08:46:40 AM 42.2469 -94.4522 198° South 351 404 40,000  Level Minneapolis Center
Wed 08:47:41 AM 42.1492 -94.4897 196° South 360 414 40,000  Level Minneapolis Center
Wed 08:48:42 AM 42.0536 -94.5292 197° South 360 414 40,000  Level Minneapolis Center
Wed 08:49:43 AM 41.9594 -94.5694 198° South 355 409 40,000  Level Minneapolis Center
Wed 08:50:45 AM 41.8628 -94.6094 197° South 360 414 40,000  Level Minneapolis Center
Wed 08:51:46 AM 41.7667 -94.6506 198° South 362 417 40,000  Level Minneapolis Center
Wed 08:52:47 AM 41.6700 -94.6906 197° South 362 417 40,000  Level Minneapolis Center
Wed 08:53:48 AM 41.5731 -94.7294 197° South 363 418 40,000  Level Minneapolis Center
Wed 08:54:50 AM 41.4767 -94.7692 197° South 361 415 40,000  Level Minneapolis Center
Wed 08:55:51 AM 41.3817 -94.8103 198° South 359 413 40,000  Level Minneapolis Center
Wed 08:56:52 AM 41.2656 -94.8556 196° South 360 414 40,000  Level Minneapolis Center
Wed 08:57:53 AM 41.1689 -94.8958 197° South 362 417 40,000  Level Minneapolis Center
Wed 08:58:54 AM 41.0725 -94.9353 197° South 361 415 40,000  Level Minneapolis Center
Wed 08:59:56 AM 40.9756 -94.9747 197° South 361 415 40,000  Level Minneapolis Center
Wed 09:00:57 AM 40.8803 -95.0136 197° South 360 414 40,000  Level Minneapolis Center
Wed 09:01:58 AM 40.7853 -95.0519 197° South 356 410 40,000 -148 Level Minneapolis Center
Wed 09:02:59 AM 40.6903 -95.0900 197° South 355 409 39,700 -1,366 Descending Minneapolis Center
Wed 09:04:01 AM 40.5983 -95.1269 197° South 351 404 37,200 -3,268 Descending Minneapolis Center
Wed 09:05:02 AM 40.5028 -95.1639 196° South 351 404 33,000 -4,293 Descending Minneapolis Center
Wed 09:06:04 AM 40.3956 -95.2081 197° South 381 438 28,400 -4,146 Descending Minneapolis Center
Wed 09:07:05 AM 40.2847 -95.2528 197° South 406 467 24,500 -3,492 Descending Minneapolis Center
Wed 09:08:06 AM 40.1786 -95.2944 197° South 403 464 21,300 -2,920 Descending Minneapolis Center
Wed 09:08:58 AM 40.0922 -95.3281 197° South 388 447 19,000 -3,054 Descending Kansas City Center
Wed 09:09:58 AM 39.9850 -95.3686 196° South 362 417 15,600 -2,975 Descending Kansas City Center
Wed 09:10:59 AM 39.8967 -95.4036 197° South 350 403 13,000 -1,790 Descending Kansas City Center
Wed 09:12:02 AM 39.7969 -95.3672 164° South 358 412 11,900 -537 Descending Kansas City Center
Wed 09:13:02 AM 39.7228 -95.2892 141° Southeast 358 412 11,900 50 Level Kansas City Center
Wed 09:14:03 AM 39.6486 -95.2122 141° Southeast 355 409 12,000 -49 Climbing Kansas City Center
Wed 09:15:04 AM 39.5631 -95.1214 141° Southeast 353 406 11,800 -787 Descending Kansas City Center
Wed 09:16:05 AM 39.4928 -95.0497 142° Southeast 333 383 10,400 -1,230 Descending Kansas City Center
Wed 09:17:06 AM 39.4322 -94.9867 141° Southeast 294 338 9,300 -1,131 Descending Kansas City Center
Wed 09:18:07 AM 39.3697 -94.9217 141° Southeast 257 296 8,100 -1,220 Descending Kansas City Center
Wed 09:19:09 AM 39.3172 -94.8725 144° Southeast 248 285 6,800 -1,122 Descending Kansas City Center
Wed 09:20:10 AM 39.2536 -94.8733 181° South 236 272 5,800 -934 Descending Kansas City Center
Wed 09:21:11 AM 39.1822 -94.8786 183° South 229 264 4,900 -836 Descending Kansas City Center
Wed 09:22:12 AM 39.1233 -94.8764 178° South 225 259 4,100 -960 Descending Kansas City Center
Wed 09:23:16 AM 39.1242 -94.8039 89° East 216 249 2,900 -576 Descending Kansas City Center
Wed 09:24:17 AM 39.1686 -94.7642 35° Northeast 205 236 2,900  Level Kansas City Center

Login

Don't have an account? Register now (free) for customized features, flight alerts, and more!